Pagrindinis puslapis
METAR-TAF:

METAR-TAF

Oro uostai :

Sebring, Florida, Jungtinės Amerikos Valstijos

platuma: 27-27-23N, ilguma: 081-20-33W, Aukštis: 19 m

Dabartinis oras

Ataskaita buvo paskelbta 21 minutes, ne 17:15 UTC
Vėjas 10 kt iš Vakarų
Temperatūra 31°C
Drėgmė 55%
Slėgis 1014 hPa
Matomumas: 16.1 km
Išsisklaidę debesys ne aukštis 3500 ft

METAR: KSEF 171715Z AUTO 28010KT 10SM SCT035 31/21 A2993 RMK AO2 T03100207

Laikas: 13:36 (17:36 UTC)


TAF: trūkstamas

Orai ataskaitas ir orų prognozės (METAR, TAF).

turimą stotys yra geltonos ir raudonos taškus žemėlapyje.

Perkelti pele per norėdami pamatyti stoties vardą.

Tada spustelėkite, norėdami matyti oro stebėjimo ir prognozės.

Norėdami pakeisti žemėlapį: spustelėkite ant žalios mygtukų su juodo kryžiaus žemyn,; žalią mygtuką su brūkšneliu, jei norite nutolinti; arba žalių rodyklių gretimoms žemėlapius.


METAR-TAF: